Keuterville, Idaho
Current Conditions -  °F | °C
As of 9:55 AM on Friday 28 Nov 2014 (Local Time) from KGIC Reporting Station
Clear Clear  
Wind Chill: 51°   Ceiling: Unl
Heat Index: 51°   Visibility: 10mi
Dew Point: 33°   Wind: 21mph
Humidity: 49%   Direction: 210°SSW
Pressure: 29.67"   Gusts: 25mph
Location:  45.9123°N, 116.505°W
Report Text: KGIC 281755Z AUTO 21018G22KT 10SM CLR 11/01 A2967 RMK AO1 T01080005 10163 21002
Loading
Personal Weather Stations






























Interactive Weather Map New forecast layout! Learn more

10-Day Weather Forecast

Advertisements
Track Severe Weather on mobile